Map

Track Data

SID SEASON NUMBER BASIN SUBBASIN NAME ISO_TIME NATURE LAT LON WMO_WIND WMO_PRES WMO_AGENCY TRACK_TYPE DIST2LAND LANDFALL IFLAG USA_AGENCY USA_ATCF_ID USA_LAT USA_LON USA_RECORD USA_STATUS USA_WIND USA_PRES USA_SSHS USA_R34_NE USA_R34_SE USA_R34_SW USA_R34_NW USA_R50_NE USA_R50_SE USA_R50_SW USA_R50_NW USA_R64_NE USA_R64_SE USA_R64_SW USA_R64_NW USA_POCI USA_ROCI USA_RMW USA_EYE TOKYO_LAT TOKYO_LON TOKYO_GRADE TOKYO_WIND TOKYO_PRES TOKYO_R50_DIR TOKYO_R50_LONG TOKYO_R50_SHORT TOKYO_R30_DIR TOKYO_R30_LONG TOKYO_R30_SHORT TOKYO_LAND CMA_LAT CMA_LON CMA_CAT CMA_WIND CMA_PRES HKO_LAT HKO_LON HKO_CAT HKO_WIND HKO_PRES NEWDELHI_LAT NEWDELHI_LON NEWDELHI_GRADE NEWDELHI_WIND NEWDELHI_PRES NEWDELHI_CI NEWDELHI_DP NEWDELHI_POCI REUNION_LAT REUNION_LON REUNION_TYPE REUNION_WIND REUNION_PRES REUNION_TNUM REUNION_CI REUNION_RMW REUNION_R34_NE REUNION_R34_SE REUNION_R34_SW REUNION_R34_NW REUNION_R50_NE REUNION_R50_SE REUNION_R50_SW REUNION_R50_NW REUNION_R64_NE REUNION_R64_SE REUNION_R64_SW REUNION_R64_NW BOM_LAT BOM_LON BOM_TYPE BOM_WIND BOM_PRES BOM_TNUM BOM_CI BOM_RMW BOM_R34_NE BOM_R34_SE BOM_R34_SW BOM_R34_NW BOM_R50_NE BOM_R50_SE BOM_R50_SW BOM_R50_NW BOM_R64_NE BOM_R64_SE BOM_R64_SW BOM_R64_NW BOM_ROCI BOM_POCI BOM_EYE BOM_POS_METHOD BOM_PRES_METHOD NADI_LAT NADI_LON NADI_CAT NADI_WIND NADI_PRES WELLINGTON_LAT WELLINGTON_LON WELLINGTON_WIND WELLINGTON_PRES DS824_LAT DS824_LON DS824_STAGE DS824_WIND DS824_PRES TD9636_LAT TD9636_LON TD9636_STAGE TD9636_WIND TD9636_PRES TD9635_LAT TD9635_LON TD9635_WIND TD9635_PRES TD9635_ROCI NEUMANN_LAT NEUMANN_LON NEUMANN_CLASS NEUMANN_WIND NEUMANN_PRES MLC_LAT MLC_LON MLC_CLASS MLC_WIND MLC_PRES USA_GUST BOM_GUST BOM_GUST_PER REUNION_GUST REUNION_GUST_PER USA_SEAHGT USA_SEARAD_NE USA_SEARAD_SE USA_SEARAD_SW USA_SEARAD_NW STORM_SPEED STORM_DIR
1958055S12066 1958 16 SI MM NOT_NAMED 1958-02-23 18:00:00 TS -11.5000 65.7000 main 1287 1280 O________OO___ jtwc_sh SH181958 -11.5000 65.7000 -1 -11.5000 65.7000 TC -11.5000 65.7000 7 4 290
1958055S12066 1958 16 SI MM NOT_NAMED 1958-02-23 21:00:00 TS -11.4287 65.5023 main 1282 1259 P________PP___ SH181958 -11.3875 65.4999 -1 -11.3875 65.4999 TC -11.5110 65.5070 7 4 276
1958055S12066 1958 16 SI MM NOT_NAMED 1958-02-24 00:00:00 TS -11.4592 65.3037 main 1259 1228 O________OP___ jtwc_sh SH181958 -11.4000 65.3000 -1 -11.4000 65.3000 TC -11.5775 65.3112 7 5 238
1958055S12066 1958 16 SI MM NOT_NAMED 1958-02-24 03:00:00 TS -11.6768 65.1033 main 1228 1180 P________PP___ SH181958 -11.6375 65.1000 -1 -11.6375 65.1000 TC -11.7553 65.1099 7 8 212
1958055S12066 1958 16 SI MM NOT_NAMED 1958-02-24 06:00:00 TS -12.1000 64.9000 main 1180 1114 O________OO___ jtwc_sh SH181958 -12.1000 64.9000 -1 -12.1000 64.9000 TC 25 -12.1000 64.9000 1 11 202
1958055S12066 1958 16 SI MM NOT_NAMED 1958-02-24 09:00:00 TS -12.7093 64.6848 main 1114 1042 P________PP___ SH181958 -12.7400 64.6851 -1 -12.7400 64.6851 TC 25 -12.6477 64.6842 1 14 196
1958055S12066 1958 16 SI MM NOT_NAMED 1958-02-24 12:00:00 TS -13.4518 64.4966 main 1033 970 O________OP___ jtwc_sh SH181958 -13.5000 64.5000 -1 -13.5000 64.5000 TC 25 -13.3553 64.4897 1 15 192
1958055S12066 1958 16 SI MM NOT_NAMED 1958-02-24 15:00:00 TS -14.2051 64.3485 main 962 902 P________PP___ SH181958 -14.2275 64.3477 -1 -14.2275 64.3477 TC 25 -14.1602 64.3502 1 16 187
1958055S12066 1958 16 SI MM NOT_NAMED 1958-02-24 18:00:00 TS -15.0000 64.3000 main 902 856 O________OO___ jtwc_sh SH181958 -15.0000 64.3000 -1 -15.0000 64.3000 TC 25 -15.0000 64.3000 1 17 178
1958055S12066 1958 16 SI MM NOT_NAMED 1958-02-24 21:00:00 TS -15.8546 64.4030 main 850 821 P________PP___ SH181958 -15.8500 64.4048 -1 -15.8500 64.4048 TC 25 -15.8637 64.3996 1 17 171
1958055S12066 1958 16 SI MM NOT_NAMED 1958-02-25 00:00:00 TS -16.7117 64.5956 main 821 800 O________OP___ jtwc_sh SH181958 -16.7000 64.6000 -1 -16.7000 64.6000 TC 25 -16.7350 64.5869 1 17 167
1958055S12066 1958 16 SI MM NOT_NAMED 1958-02-25 03:00:00 TS -17.5296 64.8118 main 800 788 P________PP___ SH181958 -17.5250 64.8147 -1 -17.5250 64.8147 TC 25 -17.5389 64.8060 1 15 165
1958055S12066 1958 16 SI MM NOT_NAMED 1958-02-25 06:00:00 TS -18.2000 65.0000 main 791 784 O________OO___ jtwc_sh SH181958 -18.2000 65.0000 -1 -18.2000 65.0000 TC 25 -18.2000 65.0000 1 11 167
1958055S12066 1958 16 SI MM NOT_NAMED 1958-02-25 09:00:00 TS -18.6329 65.0775 main 788 780 P________PP___ SH181958 -18.6324 65.0728 -1 -18.6324 65.0728 TC 25 -18.6338 65.0868 1 7 171
1958055S12066 1958 16 SI MM NOT_NAMED 1958-02-25 12:00:00 TS -18.9074 65.1129 main 780 775 O________OP___ jtwc_sh SH181958 -18.9000 65.1000 -1 -18.9000 65.1000 TC 25 -18.9221 65.1386 1 5 170
1958055S12066 1958 16 SI MM NOT_NAMED 1958-02-25 15:00:00 TS -19.1232 65.1570 main 786 782 P________PP___ SH181958 -19.1225 65.1500 -1 -19.1225 65.1500 TC 25 -19.1245 65.1709 1 4 169
1958055S12066 1958 16 SI MM NOT_NAMED 1958-02-25 18:00:00 TS -19.3000 65.2000 main 782 778 O________OO___ jtwc_sh SH181958 -19.3000 65.2000 -1 -19.3000 65.2000 TC 25 -19.3000 65.2000 1 4 167
1958055S12066 1958 16 SI MM NOT_NAMED 1958-02-25 21:00:00 TS -19.5068 65.2487 main 778 778 P________PP___ SH181958 -19.4925 65.2500 -1 -19.4925 65.2500 TC 25 -19.5353 65.2460 1 4 168
1958055S12066 1958 16 SI MM NOT_NAMED 1958-02-26 00:00:00 TS -19.7192 65.2976 main 786 784 O________OP___ jtwc_sh SH181958 -19.7000 65.3000 -1 -19.7000 65.3000 TC 25 -19.7575 65.2927 1 5 167
1958055S12066 1958 16 SI MM NOT_NAMED 1958-02-26 03:00:00 TS -19.9536 65.3476 main 783 783 P________PP___ SH181958 -19.9425 65.3500 -1 -19.9425 65.3500 TC 25 -19.9759 65.3429 1 5 168
1958055S12066 1958 16 SI MM NOT_NAMED 1958-02-26 06:00:00 TS -20.2000 65.4000 main 792 792 O________OO___ jtwc_sh SH181958 -20.2000 65.4000 -1 -20.2000 65.4000 TC 25 -20.2000 65.4000 1 5 169
1958055S12066 1958 16 SI MM NOT_NAMED 1958-02-26 09:00:00 TS -20.4503 65.4510 main 802 802 P________PP___ SH181958 -20.4500 65.4426 -1 -20.4500 65.4426 TC 25 -20.4509 65.4678 1 5 168
1958055S12066 1958 16 SI MM NOT_NAMED 1958-02-26 12:00:00 TS -20.7025 65.5142 main 803 803 O________OP___ jtwc_sh SH181958 -20.7000 65.5000 -1 -20.7000 65.5000 TC 25 -20.7075 65.5425 1 5 164
1958055S12066 1958 16 SI MM NOT_NAMED 1958-02-26 15:00:00 TS -20.9584 65.6069 main 815 815 P________PP___ SH181958 -20.9575 65.5999 -1 -20.9575 65.5999 TC 25 -20.9603 65.6209 1 5 161
1958055S12066 1958 16 SI MM NOT_NAMED 1958-02-26 18:00:00 TS -21.2000 65.7000 main 827 827 O________OO___ jtwc_sh SH181958 -21.2000 65.7000 -1 -21.2000 65.7000 TC 25 -21.2000 65.7000 1 4 163
1958055S12066 1958 16 SI MM NOT_NAMED 1958-02-26 21:00:00 TS -21.3854 65.7493 main 829 829 P________PP___ SH181958 -21.4075 65.7501 -1 -21.4075 65.7501 TC 25 -21.3411 65.7476 1 4 165
1958055S12066 1958 16 SI MM NOT_NAMED 1958-02-27 00:00:00 TS -21.5599 65.7998 main 843 843 O________OP___ jtwc_sh SH181958 -21.6000 65.8000 -1 -21.6000 65.8000 TC 25 -21.4798 65.7993 1 4 162
1958055S12066 1958 16 SI MM NOT_NAMED 1958-02-27 03:00:00 TS -21.7195 65.8723 main 855 855 P________PP___ SH181958 -21.7399 65.8704 -1 -21.7399 65.8704 TC 25 -21.6786 65.8762 1 5 157
1958055S12066 1958 16 SI MM NOT_NAMED 1958-02-27 06:00:00 TS -22.0000 66.0000 main 871 871 O________OO___ jtwc_sh SH181958 -22.0000 66.0000 -1 -22.0000 66.0000 TC 25 -22.0000 66.0000 1 9 158
1958055S12066 1958 16 SI MM NOT_NAMED 1958-02-27 09:00:00 TS -22.5304 66.2178 main 903 903 P________PP___ SH181958 -22.5251 66.2274 -1 -22.5251 66.2274 TC 25 -22.5412 66.1985 1 13 160
1958055S12066 1958 16 SI MM NOT_NAMED 1958-02-27 12:00:00 TS -23.2010 66.4820 main 954 954 O________OP___ jtwc_sh SH181958 -23.2000 66.5000 -1 -23.2000 66.5000 TC 25 -23.2029 66.4459 1 15 161
1958055S12066 1958 16 SI MM NOT_NAMED 1958-02-27 15:00:00 TS -23.9093 66.7402 main 1000 1000 P________PP___ SH181958 -23.9075 66.7501 -1 -23.9075 66.7501 TC 25 -23.9131 66.7205 1 15 161
1958055S12066 1958 16 SI MM NOT_NAMED 1958-02-27 18:00:00 TS -24.6000 67.0000 main 1058 1058 O________OO___ jtwc_sh SH181958 -24.6000 67.0000 -1 -24.6000 67.0000 TC 25 -24.6000 67.0000 1 14 160
1958055S12066 1958 16 SI MM NOT_NAMED 1958-02-27 21:00:00 TS -25.1893 67.2554 main 1114 1114 P________PP___ SH181958 -25.1799 67.2503 -1 -25.1799 67.2503 TC 25 -25.2079 67.2656 1 12 158
1958055S12066 1958 16 SI MM NOT_NAMED 1958-02-28 00:00:00 TS -25.7149 67.5058 main 1157 1157 O________OP___ jtwc_sh SH181958 -25.7000 67.5000 -1 -25.7000 67.5000 TC 25 -25.7448 67.5175 1 11 156
1958055S12066 1958 16 SI MM NOT_NAMED 1958-02-28 03:00:00 TS -26.2132 67.7532 main 1210 1210 P________PP___ SH181958 -26.2026 67.7495 -1 -26.2026 67.7495 TC 25 -26.2343 67.7605 1 11 156
1958055S12066 1958 16 SI MM NOT_NAMED 1958-02-28 06:00:00 TS -26.7000 68.0000 main 1256 O________OO___ jtwc_sh SH181958 -26.7000 68.0000 -1 -26.7000 68.0000 TC 25 -26.7000 68.0000 1 11 156

About IBTrACS Database

This database is a web-friendly format of International Best Track Archive for Climate Stewardship (IBTrACS), a global best track data archive curated by NOAA dating back to 1842.

Updated: 2021-10-21